Time;durP1;ratioP1;P1;durP2;ratioP2;P2;SDS_P1;SDS_P2;PMS_P1;PMS_P2;Temp;Humidity;BMP_temperature;BMP_pressure;BME280_temperature;BME280_humidity;BME280_pressure;Samples;Min_cycle;Max_cycle;Signal;HPM_P1;HPM_P2
2022/12/19 00:00:54;;;;;;;;;;;;;;;;;;4451889;32;19989;-77
2022/12/19 00:03:19;;;;;;;;;;;;;;;;;;4453350;32;19996;-77
2022/12/19 00:05:44;;;;;;;;;;;;;;;;;;4437353;32;19936;-78
2022/12/19 00:08:09;;;;;;;;;;;;;;;;;;4453081;32;19958;-78
2022/12/19 00:10:34;;;;;;;;;;;;;;;;;;4454125;32;19951;-79
2022/12/19 00:12:59;;;;;;;;;;;;;;;;;;4452211;32;19936;-79
2022/12/19 00:15:26;;;;;;;;;;;;;;;;;;4451237;32;19936;-79
2022/12/19 00:17:51;;;;;;;;;;;;;;;;;;4451724;32;19951;-78
2022/12/19 00:20:17;;;;;;;;;;;;;;;;;;4453864;32;19937;-79
2022/12/19 00:22:42;;;;;;;;;;;;;;;;;;4456093;32;19956;-79
2022/12/19 00:25:07;;;;;;;;;;;;;;;;;;4453468;32;19940;-79
2022/12/19 00:27:32;;;;;;;;;;;;;;;;;;4453107;32;19968;-79
2022/12/19 00:29:57;;;;;;;;;;;;;;;;;;4439005;32;19936;-80
2022/12/19 00:32:22;;;;;;;;;;;;;;;;;;4452788;32;19933;-80
2022/12/19 00:34:47;;;;;;;;;;;;;;;;;;4453671;32;19946;-80
2022/12/19 00:37:12;;;;;;;;;;;;;;;;;;4453347;32;19948;-80
2022/12/19 00:39:37;;;;;;;;;;;;;;;;;;4452545;32;19954;-80
2022/12/19 00:42:03;;;;;;;;;;;;;;;;;;4438530;32;19972;-80
2022/12/19 00:44:28;;;;;;;;;;;;;;;;;;4439058;32;19992;-80
2022/12/19 00:46:53;;;;;;;;;;;;;;;;;;4451784;32;20285;-80
2022/12/19 00:49:18;;;;;;;;;;;;;;;;;;4451462;32;20294;-80
2022/12/19 00:51:43;;;;;;;;;;;;;;;;;;4452100;32;20350;-81
2022/12/19 00:54:08;;;;;;;;;;;;;;;;;;4453356;32;19948;-80
2022/12/19 00:56:33;;;;;;;;;;;;;;;;;;4453083;32;19932;-80
2022/12/19 00:58:58;;;;;;;;;;;;;;;;;;4451810;32;19970;-80
2022/12/19 01:01:24;;;;;;;;;;;;;;;;;;4436686;32;19976;-79
2022/12/19 01:03:49;;;;;;;;;;;;;;;;;;4451331;32;19973;-79
2022/12/19 01:06:14;;;;;;;;;;;;;;;;;;4452425;32;19964;-80
2022/12/19 01:08:39;;;;;;;;;;;;;;;;;;4453680;32;19933;-79
2022/12/19 01:11:04;;;;;;;;;;;;;;;;;;4437611;32;19972;-79
2022/12/19 01:13:29;;;;;;;;;;;;;;;;;;4453693;32;19972;-79
2022/12/19 01:15:54;;;;;;;;;;;;;;;;;;4454101;32;19967;-79
2022/12/19 01:18:20;;;;;;;;;;;;;;;;;;4455219;32;20266;-80
2022/12/19 01:20:47;;;;;;;;;;;;;;;;;;4455376;32;19978;-79
2022/12/19 01:23:13;;;;;;;;;;;;;;;;;;4453347;32;19936;-79
2022/12/19 01:25:38;;;;;;;;;;;;;;;;;;4453372;32;19947;-79
2022/12/19 01:28:03;;;;;;;;;;;;;;;;;;4454328;32;20278;-78
2022/12/19 01:30:28;;;;;;;;;;;;;;;;;;4455786;32;19952;-78
2022/12/19 01:32:53;;;;;;;;;;;;;;;;;;4453775;32;19970;-77
2022/12/19 01:35:18;;;;;;;;;;;;;;;;;;4457981;32;19929;-78
2022/12/19 01:37:43;;;;;;;;;;;;;;;;;;4463871;32;19940;-76
2022/12/19 01:40:08;;;;;;;;;;;;;;;;;;4464624;32;20002;-77
2022/12/19 01:42:33;;;;;;;;;;;;;;;;;;4467173;32;19998;-77
2022/12/19 01:44:58;;;;;;;;;;;;;;;;;;4466306;32;19933;-77
2022/12/19 01:47:24;;;;;;;;;;;;;;;;;;4464290;32;19933;-77
2022/12/19 01:49:49;;;;;;;;;;;;;;;;;;4461147;32;19933;-78
2022/12/19 01:52:14;;;;;;;;;;;;;;;;;;4462669;32;19972;-78
2022/12/19 01:54:39;;;;;;;;;;;;;;;;;;4459131;32;19936;-78
2022/12/19 01:57:04;;;;;;;;;;;;;;;;;;4458823;32;20004;-79
2022/12/19 01:59:29;;;;;;;;;;;;;;;;;;4463455;32;19936;-79
2022/12/19 02:01:54;;;;;;;;;;;;;;;;;;4456993;32;20304;-78
2022/12/19 02:04:19;;;;;;;;;;;;;;;;;;4441968;32;19937;-79
2022/12/19 02:06:45;;;;;;;;;;;;;;;;;;4455524;32;19981;-78
2022/12/19 02:09:10;;;;;;;;;;;;;;;;;;4454739;32;20356;-78
2022/12/19 02:11:35;;;;;;;;;;;;;;;;;;4454600;32;20382;-78
2022/12/19 02:14:00;;;;;;;;;;;;;;;;;;4454003;32;19950;-80
2022/12/19 02:16:25;;;;;;;;;;;;;;;;;;4455079;32;19940;-80
2022/12/19 02:18:50;;;;;;;;;;;;;;;;;;4453626;32;19932;-79
2022/12/19 02:21:15;;;;;;;;;;;;;;;;;;4454215;32;19932;-79
2022/12/19 02:23:41;;;;;;;;;;;;;;;;;;4452987;32;19932;-80
2022/12/19 02:26:06;;;;;;;;;;;;;;;;;;4438233;32;20326;-80
2022/12/19 02:28:31;;;;;;;;;;;;;;;;;;4454066;32;19928;-80
2022/12/19 02:30:56;;;;;;;;;;;;;;;;;;4452860;32;19940;-78
2022/12/19 02:33:21;;;;;;;;;;;;;;;;;;4452165;32;19964;-78
2022/12/19 02:35:46;;;;;;;;;;;;;;;;;;4455367;32;19966;-78
2022/12/19 02:38:11;;;;;;;;;;;;;;;;;;4456979;32;19932;-77
2022/12/19 02:40:36;;;;;;;;;;;;;;;;;;4463700;32;19933;-78
2022/12/19 02:43:02;;;;;;;;;;;;;;;;;;4463154;32;19955;-77
2022/12/19 02:45:27;;;;;;;;;;;;;;;;;;4464377;32;19932;-78
2022/12/19 02:47:52;;;;;;;;;;;;;;;;;;4461109;32;19969;-78
2022/12/19 02:50:17;;;;;;;;;;;;;;;;;;4455497;32;20330;-78
2022/12/19 02:52:42;;;;;;;;;;;;;;;;;;4454704;32;19951;-79
2022/12/19 02:55:07;;;;;;;;;;;;;;;;;;4454737;32;19941;-79
2022/12/19 02:57:32;;;;;;;;;;;;;;;;;;4454154;32;19987;-77
2022/12/19 02:59:57;;;;;;;;;;;;;;;;;;4455025;32;19973;-78
2022/12/19 03:02:22;;;;;;;;;;;;;;;;;;4454049;32;19932;-79
2022/12/19 03:04:48;;;;;;;;;;;;;;;;;;4454147;32;19964;-79
2022/12/19 03:07:13;;;;;;;;;;;;;;;;;;4453540;32;19964;-79
2022/12/19 03:09:38;;;;;;;;;;;;;;;;;;4439723;32;20256;-79
2022/12/19 03:12:03;;;;;;;;;;;;;;;;;;4453240;32;19936;-79
2022/12/19 03:14:28;;;;;;;;;;;;;;;;;;4438412;32;20273;-79
2022/12/19 03:16:53;;;;;;;;;;;;;;;;;;4455308;32;19984;-78
2022/12/19 03:19:18;;;;;;;;;;;;;;;;;;4453607;32;19932;-77
2022/12/19 03:21:43;;;;;;;;;;;;;;;;;;4439013;32;20114;-79
2022/12/19 03:24:08;;;;;;;;;;;;;;;;;;4452093;32;19966;-80
2022/12/19 03:26:35;;;;;;;;;;;;;;;;;;4455055;32;19964;-79
2022/12/19 03:29:00;;;;;;;;;;;;;;;;;;4452479;32;19960;-79
2022/12/19 03:31:25;;;;;;;;;;;;;;;;;;4452799;32;19933;-79
2022/12/19 03:33:50;;;;;;;;;;;;;;;;;;4452593;32;20055;-79
2022/12/19 03:36:15;;;;;;;;;;;;;;;;;;4450979;32;19937;-80
2022/12/19 03:38:40;;;;;;;;;;;;;;;;;;4451606;32;19943;-80
2022/12/19 03:41:06;;;;;;;;;;;;;;;;;;4437094;32;19937;-80
2022/12/19 03:43:31;;;;;;;;;;;;;;;;;;4451373;32;20231;-79
2022/12/19 03:45:56;;;;;;;;;;;;;;;;;;4450977;32;19969;-79
2022/12/19 03:48:21;;;;;;;;;;;;;;;;;;4451519;32;19976;-80
2022/12/19 03:50:46;;;;;;;;;;;;;;;;;;4439247;32;19980;-80
2022/12/19 03:53:11;;;;;;;;;;;;;;;;;;4453957;32;19936;-80
2022/12/19 03:55:36;;;;;;;;;;;;;;;;;;4454411;32;19937;-80
2022/12/19 03:58:01;;;;;;;;;;;;;;;;;;4453636;32;20059;-80
2022/12/19 04:00:26;;;;;;;;;;;;;;;;;;4454222;32;20113;-80
2022/12/19 04:02:52;;;;;;;;;;;;;;;;;;4455577;32;19933;-81
2022/12/19 04:05:18;;;;;;;;;;;;;;;;;;4441463;32;19940;-80
2022/12/19 04:07:43;;;;;;;;;;;;;;;;;;4456374;32;19950;-80
2022/12/19 04:10:08;;;;;;;;;;;;;;;;;;4455220;32;19938;-81
2022/12/19 04:12:33;;;;;;;;;;;;;;;;;;4455926;32;19933;-81
2022/12/19 04:14:58;;;;;;;;;;;;;;;;;;4456042;32;19971;-81
2022/12/19 04:17:23;;;;;;;;;;;;;;;;;;4454903;32;19933;-80
2022/12/19 04:19:48;;;;;;;;;;;;;;;;;;4455098;32;19946;-81
2022/12/19 04:22:13;;;;;;;;;;;;;;;;;;4441725;32;20019;-81
2022/12/19 04:24:39;;;;;;;;;;;;;;;;;;4456166;32;19933;-81
2022/12/19 04:27:04;;;;;;;;;;;;;;;;;;4455886;32;19988;-82
2022/12/19 04:29:29;;;;;;;;;;;;;;;;;;4454692;32;19932;-81
2022/12/19 04:31:54;;;;;;;;;;;;;;;;;;4453108;32;19976;-81
2022/12/19 04:34:19;;;;;;;;;;;;;;;;;;4439092;32;19941;-82
2022/12/19 04:36:44;;;;;;;;;;;;;;;;;;4439639;32;19978;-82
2022/12/19 04:39:10;;;;;;;;;;;;;;;;;;4455097;32;19951;-81
2022/12/19 04:41:35;;;;;;;;;;;;;;;;;;4454184;32;19937;-81
2022/12/19 04:44:00;;;;;;;;;;;;;;;;;;4456689;32;19955;-81
2022/12/19 04:46:25;;;;;;;;;;;;;;;;;;4456049;32;20042;-81
2022/12/19 04:48:50;;;;;;;;;;;;;;;;;;4453155;32;20247;-81
2022/12/19 04:51:15;;;;;;;;;;;;;;;;;;4455205;32;19969;-82
2022/12/19 04:53:40;;;;;;;;;;;;;;;;;;4457115;32;19940;-82
2022/12/19 04:56:05;;;;;;;;;;;;;;;;;;4460472;32;19932;-82
2022/12/19 04:58:30;;;;;;;;;;;;;;;;;;4461662;32;20094;-82
2022/12/19 05:00:55;;;;;;;;;;;;;;;;;;4458445;32;19943;-82
2022/12/19 05:03:20;;;;;;;;;;;;;;;;;;4467187;32;19942;-81
2022/12/19 05:05:46;;;;;;;;;;;;;;;;;;4468567;32;19924;-80
2022/12/19 05:08:11;;;;;;;;;;;;;;;;;;4457375;32;19945;-80
2022/12/19 05:10:36;;;;;;;;;;;;;;;;;;4470524;32;19940;-82
2022/12/19 05:13:01;;;;;;;;;;;;;;;;;;4471407;32;19932;-81
2022/12/19 05:15:26;;;;;;;;;;;;;;;;;;4456429;32;19932;-82
2022/12/19 05:17:51;;;;;;;;;;;;;;;;;;4453182;32;19960;-82
2022/12/19 05:20:16;;;;;;;;;;;;;;;;;;4463061;32;19965;-81
2022/12/19 05:22:41;;;;;;;;;;;;;;;;;;4460980;32;19948;-80
2022/12/19 05:25:06;;;;;;;;;;;;;;;;;;4446518;32;19937;-81
2022/12/19 05:27:32;;;;;;;;;;;;;;;;;;4459235;32;19956;-80
2022/12/19 05:29:57;;;;;;;;;;;;;;;;;;4457240;32;20056;-81
2022/12/19 05:32:22;;;;;;;;;;;;;;;;;;4458335;32;19987;-81
2022/12/19 05:34:47;;;;;;;;;;;;;;;;;;4457174;32;19936;-81
2022/12/19 05:37:12;;;;;;;;;;;;;;;;;;4455038;32;19973;-80
2022/12/19 05:39:37;;;;;;;;;;;;;;;;;;4441189;32;19960;-81
2022/12/19 05:42:03;;;;;;;;;;;;;;;;;;4454471;32;20291;-81
2022/12/19 05:44:28;;;;;;;;;;;;;;;;;;4456769;32;19965;-81
2022/12/19 05:46:53;;;;;;;;;;;;;;;;;;4454901;32;19947;-80
2022/12/19 05:49:18;;;;;;;;;;;;;;;;;;4455063;32;19932;-81
2022/12/19 05:51:43;;;;;;;;;;;;;;;;;;4454971;32;19943;-81
2022/12/19 05:54:08;;;;;;;;;;;;;;;;;;4455542;32;19971;-82
2022/12/19 05:56:33;;;;;;;;;;;;;;;;;;4453683;32;19971;-81
2022/12/19 05:58:58;;;;;;;;;;;;;;;;;;4454894;32;20322;-81
2022/12/19 06:01:24;;;;;;;;;;;;;;;;;;4454231;32;19973;-80
2022/12/19 06:03:49;;;;;;;;;;;;;;;;;;4453280;32;19970;-81
2022/12/19 06:06:14;;;;;;;;;;;;;;;;;;4456172;32;20349;-80
2022/12/19 06:08:40;;;;;;;;;;;;;;;;;;4440018;32;19941;-81
2022/12/19 06:11:05;;;;;;;;;;;;;;;;;;4454125;32;19940;-82
2022/12/19 06:13:30;;;;;;;;;;;;;;;;;;4456706;32;19940;-79
2022/12/19 06:15:55;;;;;;;;;;;;;;;;;;4441264;32;19946;-81
2022/12/19 06:18:20;;;;;;;;;;;;;;;;;;4455523;32;20030;-81
2022/12/19 06:20:45;;;;;;;;;;;;;;;;;;4453652;32;19973;-81
2022/12/19 06:23:10;;;;;;;;;;;;;;;;;;4454017;32;20310;-80
2022/12/19 06:25:35;;;;;;;;;;;;;;;;;;4454192;32;19951;-80
2022/12/19 06:28:02;;;;;;;;;;;;;;;;;;4454214;32;19932;-80
2022/12/19 06:30:27;;;;;;;;;;;;;;;;;;4453425;32;19952;-79
2022/12/19 06:32:52;;;;;;;;;;;;;;;;;;4453908;32;19932;-80
2022/12/19 06:35:18;;;;;;;;;;;;;;;;;;4454523;32;19983;-81
2022/12/19 06:37:43;;;;;;;;;;;;;;;;;;4453866;32;20240;-82
2022/12/19 06:42:21;;;;;;;;;;;;;;;;;;4453273;32;19966;-82
2022/12/19 06:42:53;;;;;;;;;;;;;;;;;;4453727;32;19940;-82
2022/12/19 06:45:18;;;;;;;;;;;;;;;;;;4452479;32;20044;-82
2022/12/19 06:47:43;;;;;;;;;;;;;;;;;;4453986;32;20203;-81
2022/12/19 06:50:08;;;;;;;;;;;;;;;;;;4437843;32;20342;-81
2022/12/19 06:52:33;;;;;;;;;;;;;;;;;;4452460;32;20324;-81
2022/12/19 06:54:59;;;;;;;;;;;;;;;;;;4451011;32;20327;-81
2022/12/19 06:57:24;;;;;;;;;;;;;;;;;;4450789;32;20024;-81
2022/12/19 06:59:49;;;;;;;;;;;;;;;;;;4451384;32;19977;-81
2022/12/19 07:02:14;;;;;;;;;;;;;;;;;;4451796;32;19988;-80
2022/12/19 07:04:39;;;;;;;;;;;;;;;;;;4452530;32;19976;-80
2022/12/19 07:07:04;;;;;;;;;;;;;;;;;;4452748;32;20340;-81
2022/12/19 07:09:29;;;;;;;;;;;;;;;;;;4438711;32;19948;-80
2022/12/19 07:11:54;;;;;;;;;;;;;;;;;;4452386;32;19972;-81
2022/12/19 07:14:20;;;;;;;;;;;;;;;;;;4452473;32;20003;-82
2022/12/19 07:16:45;;;;;;;;;;;;;;;;;;4453741;32;19944;-81
2022/12/19 07:19:10;;;;;;;;;;;;;;;;;;4452623;32;19973;-81
2022/12/19 07:21:35;;;;;;;;;;;;;;;;;;4453899;32;19936;-80
2022/12/19 07:24:00;;;;;;;;;;;;;;;;;;4441319;32;19989;-80
2022/12/19 07:26:25;;;;;;;;;;;;;;;;;;4457422;32;19947;-81
2022/12/19 07:28:50;;;;;;;;;;;;;;;;;;4453927;32;19989;-81
2022/12/19 07:31:15;;;;;;;;;;;;;;;;;;4453375;32;19932;-80
2022/12/19 07:33:40;;;;;;;;;;;;;;;;;;4438415;32;19955;-81
2022/12/19 07:36:06;;;;;;;;;;;;;;;;;;4454766;32;19936;-80
2022/12/19 07:38:31;;;;;;;;;;;;;;;;;;4452213;32;19993;-80
2022/12/19 07:40:56;;;;;;;;;;;;;;;;;;4451995;32;19936;-80
2022/12/19 07:43:21;;;;;;;;;;;;;;;;;;4452196;32;19948;-80
2022/12/19 07:45:46;;;;;;;;;;;;;;;;;;4452411;32;19937;-80
2022/12/19 07:48:11;;;;;;;;;;;;;;;;;;4437471;32;19947;-81
2022/12/19 07:50:36;;;;;;;;;;;;;;;;;;4437472;32;19993;-81
2022/12/19 07:53:01;;;;;;;;;;;;;;;;;;4452342;32;19944;-81
2022/12/19 07:55:26;;;;;;;;;;;;;;;;;;4453010;32;19936;-81
2022/12/19 07:57:52;;;;;;;;;;;;;;;;;;4452204;32;20267;-81
2022/12/19 08:00:17;;;;;;;;;;;;;;;;;;4440416;32;19929;-81
2022/12/19 08:02:42;;;;;;;;;;;;;;;;;;4452423;32;19940;-80
2022/12/19 08:05:07;;;;;;;;;;;;;;;;;;4451885;32;19932;-81
2022/12/19 08:07:33;;;;;;;;;;;;;;;;;;4453258;32;19956;-82
2022/12/19 08:09:59;;;;;;;;;;;;;;;;;;4453379;32;19947;-81
2022/12/19 08:12:25;;;;;;;;;;;;;;;;;;4438612;32;19964;-81
2022/12/19 08:14:50;;;;;;;;;;;;;;;;;;4452612;32;20306;-81
2022/12/19 08:17:16;;;;;;;;;;;;;;;;;;4452958;32;19944;-82
2022/12/19 08:19:41;;;;;;;;;;;;;;;;;;4453102;32;19936;-80
2022/12/19 08:22:06;;;;;;;;;;;;;;;;;;4453178;32;19948;-80
2022/12/19 08:24:31;;;;;;;;;;;;;;;;;;4452856;32;19933;-81
2022/12/19 08:26:56;;;;;;;;;;;;;;;;;;4438324;32;19936;-81
2022/12/19 08:29:21;;;;;;;;;;;;;;;;;;4454439;32;19933;-80
2022/12/19 08:31:46;;;;;;;;;;;;;;;;;;4452620;32;19969;-80
2022/12/19 08:34:11;;;;;;;;;;;;;;;;;;4452213;32;19936;-79
2022/12/19 08:36:38;;;;;;;;;;;;;;;;;;4437920;32;19973;-81
2022/12/19 08:39:03;;;;;;;;;;;;;;;;;;4438237;32;19936;-81
2022/12/19 08:41:28;;;;;;;;;;;;;;;;;;4438513;32;19972;-80
2022/12/19 08:43:54;;;;;;;;;;;;;;;;;;4452017;32;19947;-80
2022/12/19 08:46:19;;;;;;;;;;;;;;;;;;4442544;32;20337;-80
2022/12/19 08:48:44;;;;;;;;;;;;;;;;;;4442957;32;19944;-80
2022/12/19 08:51:09;;;;;;;;;;;;;;;;;;4454898;32;19940;-80
2022/12/19 08:53:34;;;;;;;;;;;;;;;;;;4441212;32;19968;-81
2022/12/19 08:55:59;;;;;;;;;;;;;;;;;;4441220;32;19936;-79
2022/12/19 08:58:24;;;;;;;;;;;;;;;;;;4453689;32;19968;-80
2022/12/19 09:00:51;;;;;;;;;;;;;;;;;;4451064;32;19996;-81
2022/12/19 09:03:16;;;;;;;;;;;;;;;;;;4452038;32;19947;-79
2022/12/19 09:05:42;;;;;;;;;;;;;;;;;;4450671;32;19941;-80
2022/12/19 09:08:07;;;;;;;;;;;;;;;;;;4451274;32;19933;-80
2022/12/19 09:10:32;;;;;;;;;;;;;;;;;;4437003;32;19936;-80
2022/12/19 09:12:57;;;;;;;;;;;;;;;;;;4437116;32;19956;-80
2022/12/19 09:15:22;;;;;;;;;;;;;;;;;;4451946;32;19937;-81
2022/12/19 09:17:47;;;;;;;;;;;;;;;;;;4451668;32;19964;-81
2022/12/19 09:20:12;;;;;;;;;;;;;;;;;;4452170;32;20284;-81
2022/12/19 09:22:37;;;;;;;;;;;;;;;;;;4454279;32;19947;-82
2022/12/19 09:25:02;;;;;;;;;;;;;;;;;;4452751;32;19932;-82
2022/12/19 09:27:28;;;;;;;;;;;;;;;;;;4453962;32;20314;-80
2022/12/19 09:29:53;;;;;;;;;;;;;;;;;;4452078;32;19951;-82
2022/12/19 09:32:18;;;;;;;;;;;;;;;;;;4452753;32;20072;-81
2022/12/19 09:34:43;;;;;;;;;;;;;;;;;;4451453;32;19995;-81
2022/12/19 09:37:08;;;;;;;;;;;;;;;;;;4451606;32;19937;-81
2022/12/19 09:39:34;;;;;;;;;;;;;;;;;;4454722;32;19964;-81
2022/12/19 09:42:00;;;;;;;;;;;;;;;;;;4454050;32;20359;-80
2022/12/19 09:44:25;;;;;;;;;;;;;;;;;;4454025;32;20338;-82
2022/12/19 09:46:50;;;;;;;;;;;;;;;;;;4459098;32;19989;-79
2022/12/19 09:49:15;;;;;;;;;;;;;;;;;;4461886;32;19932;-80
2022/12/19 09:51:40;;;;;;;;;;;;;;;;;;4459765;32;20017;-79
2022/12/19 09:54:05;;;;;;;;;;;;;;;;;;4457934;32;19936;-81
2022/12/19 09:56:30;;;;;;;;;;;;;;;;;;4454927;32;19932;-80
2022/12/19 09:58:56;;;;;;;;;;;;;;;;;;4459678;32;19948;-79
2022/12/19 10:01:21;;;;;;;;;;;;;;;;;;4455948;32;19975;-81
2022/12/19 10:03:46;;;;;;;;;;;;;;;;;;4455720;32;19933;-80
2022/12/19 10:06:11;;;;;;;;;;;;;;;;;;4455535;32;19936;-81
2022/12/19 10:08:36;;;;;;;;;;;;;;;;;;4455949;32;20026;-83
2022/12/19 10:11:01;;;;;;;;;;;;;;;;;;4455444;32;20274;-81
2022/12/19 10:13:26;;;;;;;;;;;;;;;;;;4454027;32;19937;-81
2022/12/19 10:15:51;;;;;;;;;;;;;;;;;;4453913;32;19955;-80
2022/12/19 10:18:16;;;;;;;;;;;;;;;;;;4454324;32;19963;-81
2022/12/19 10:20:43;;;;;;;;;;;;;;;;;;4454365;32;19937;-81
2022/12/19 10:23:08;;;;;;;;;;;;;;;;;;4453863;32;19988;-80
2022/12/19 10:25:33;;;;;;;;;;;;;;;;;;4454349;32;20024;-79
2022/12/19 10:27:58;;;;;;;;;;;;;;;;;;4454994;32;19941;-80
2022/12/19 10:30:23;;;;;;;;;;;;;;;;;;4454654;32;20007;-79
2022/12/19 10:32:49;;;;;;;;;;;;;;;;;;4452532;32;19942;-79
2022/12/19 10:35:14;;;;;;;;;;;;;;;;;;4452843;32;19964;-79
2022/12/19 10:37:39;;;;;;;;;;;;;;;;;;4452931;32;19936;-79
2022/12/19 10:40:04;;;;;;;;;;;;;;;;;;4453571;32;20020;-79
2022/12/19 10:42:29;;;;;;;;;;;;;;;;;;4453578;32;20310;-78
2022/12/19 10:44:54;;;;;;;;;;;;;;;;;;4453812;32;19964;-78
2022/12/19 10:47:20;;;;;;;;;;;;;;;;;;4453566;32;19946;-80
2022/12/19 10:49:45;;;;;;;;;;;;;;;;;;4454514;32;20368;-80
2022/12/19 10:52:10;;;;;;;;;;;;;;;;;;4453828;32;19942;-82
2022/12/19 10:54:38;;;;;;;;;;;;;;;;;;4453235;32;19950;-80
2022/12/19 10:57:03;;;;;;;;;;;;;;;;;;4453655;32;19948;-81
2022/12/19 10:59:28;;;;;;;;;;;;;;;;;;4454266;32;19932;-80
2022/12/19 11:01:53;;;;;;;;;;;;;;;;;;4452101;32;19937;-82
2022/12/19 11:04:18;;;;;;;;;;;;;;;;;;4451455;32;20346;-81
2022/12/19 11:06:44;;;;;;;;;;;;;;;;;;4454047;32;20000;-80
2022/12/19 11:09:09;;;;;;;;;;;;;;;;;;4454140;32;20271;-82
2022/12/19 11:11:35;;;;;;;;;;;;;;;;;;4452153;32;20035;-82
2022/12/19 11:14:00;;;;;;;;;;;;;;;;;;4453537;32;20267;-82
2022/12/19 11:16:25;;;;;;;;;;;;;;;;;;4455242;32;19963;-82
2022/12/19 11:18:50;;;;;;;;;;;;;;;;;;4453608;32;19951;-82
2022/12/19 11:21:15;;;;;;;;;;;;;;;;;;4451856;32;19955;-82
2022/12/19 11:23:40;;;;;;;;;;;;;;;;;;4454872;32;19967;-81
2022/12/19 11:26:05;;;;;;;;;;;;;;;;;;4453289;32;20329;-81
2022/12/19 11:28:30;;;;;;;;;;;;;;;;;;4454107;32;19967;-81
2022/12/19 11:30:55;;;;;;;;;;;;;;;;;;4453598;32;19951;-81
2022/12/19 11:33:21;;;;;;;;;;;;;;;;;;4453404;32;19960;-81
2022/12/19 11:35:46;;;;;;;;;;;;;;;;;;4454157;32;19948;-81
2022/12/19 11:38:11;;;;;;;;;;;;;;;;;;4457617;32;20000;-81
2022/12/19 11:40:36;;;;;;;;;;;;;;;;;;4456663;32;19933;-81
2022/12/19 11:43:01;;;;;;;;;;;;;;;;;;4454009;32;20289;-80
2022/12/19 11:45:27;;;;;;;;;;;;;;;;;;4453781;32;20317;-82
2022/12/19 11:47:52;;;;;;;;;;;;;;;;;;4452196;32;19937;-82
2022/12/19 11:50:17;;;;;;;;;;;;;;;;;;4453514;32;19966;-81
2022/12/19 11:52:42;;;;;;;;;;;;;;;;;;4454331;32;19933;-81
2022/12/19 11:55:07;;;;;;;;;;;;;;;;;;4452841;32;19937;-81
2022/12/19 11:57:32;;;;;;;;;;;;;;;;;;4451251;32;19948;-82
2022/12/19 11:59:57;;;;;;;;;;;;;;;;;;4452435;32;19947;-82
2022/12/19 12:02:22;;;;;;;;;;;;;;;;;;4452227;32;19940;-83
2022/12/19 12:04:47;;;;;;;;;;;;;;;;;;4452250;32;19936;-81
2022/12/19 12:07:12;;;;;;;;;;;;;;;;;;4452607;32;19992;-81
2022/12/19 12:09:38;;;;;;;;;;;;;;;;;;4456836;32;19936;-81
2022/12/19 12:12:03;;;;;;;;;;;;;;;;;;4457938;32;19968;-82
2022/12/19 12:14:28;;;;;;;;;;;;;;;;;;4455026;32;19941;-82
2022/12/19 12:16:53;;;;;;;;;;;;;;;;;;4452831;32;19936;-81
2022/12/19 12:19:18;;;;;;;;;;;;;;;;;;4457388;32;19936;-80
2022/12/19 12:21:43;;;;;;;;;;;;;;;;;;4458776;32;19972;-82
2022/12/19 12:24:08;;;;;;;;;;;;;;;;;;4458586;32;19961;-82
2022/12/19 12:26:33;;;;;;;;;;;;;;;;;;4455938;32;19940;-81
2022/12/19 12:28:59;;;;;;;;;;;;;;;;;;4456884;32;19947;-83
2022/12/19 12:31:24;;;;;;;;;;;;;;;;;;4455451;32;19982;-83
2022/12/19 12:33:49;;;;;;;;;;;;;;;;;;4454443;32;20303;-82
2022/12/19 12:36:14;;;;;;;;;;;;;;;;;;4453763;32;20023;-82
2022/12/19 12:38:41;;;;;;;;;;;;;;;;;;4452391;32;19928;-80
2022/12/19 12:41:06;;;;;;;;;;;;;;;;;;4453352;32;19936;-80
2022/12/19 12:43:31;;;;;;;;;;;;;;;;;;4451918;32;19932;-80
2022/12/19 12:45:56;;;;;;;;;;;;;;;;;;4452766;32;19937;-80
2022/12/19 12:48:22;;;;;;;;;;;;;;;;;;4452588;32;19932;-79
2022/12/19 12:50:47;;;;;;;;;;;;;;;;;;4453191;32;19970;-77
2022/12/19 12:53:12;;;;;;;;;;;;;;;;;;4450399;32;20291;-78
2022/12/19 12:55:39;;;;;;;;;;;;;;;;;;4451871;32;19952;-77
2022/12/19 12:58:04;;;;;;;;;;;;;;;;;;4453405;32;19932;-77
2022/12/19 13:00:29;;;;;;;;;;;;;;;;;;4451906;32;19969;-77
2022/12/19 13:02:54;;;;;;;;;;;;;;;;;;4451025;32;19945;-77
2022/12/19 13:05:19;;;;;;;;;;;;;;;;;;4451243;32;19995;-76
2022/12/19 13:07:44;;;;;;;;;;;;;;;;;;4451414;32;20363;-75
2022/12/19 13:10:09;;;;;;;;;;;;;;;;;;4450828;32;20299;-75
2022/12/19 13:15:18;;;;;;;;;;;;;;;;;;4453946;32;19954;-76
2022/12/19 13:17:44;;;;;;;;;;;;;;;;;;4454078;32;19933;-76
2022/12/19 13:20:09;;;;;;;;;;;;;;;;;;4452935;32;19940;-75
2022/12/19 13:22:34;;;;;;;;;;;;;;;;;;4454220;32;19978;-76
2022/12/19 13:24:59;;;;;;;;;;;;;;;;;;4453178;32;19969;-75
2022/12/19 13:27:24;;;;;;;;;;;;;;;;;;4454569;32;19966;-74
2022/12/19 13:29:50;;;;;;;;;;;;;;;;;;4455103;32;19965;-74
2022/12/19 13:32:15;;;;;;;;;;;;;;;;;;4454267;32;19951;-73
2022/12/19 13:34:40;;;;;;;;;;;;;;;;;;4454591;32;19941;-75
2022/12/19 13:37:05;;;;;;;;;;;;;;;;;;4454205;32;19984;-74
2022/12/19 13:39:31;;;;;;;;;;;;;;;;;;4453967;32;19947;-74
2022/12/19 13:44:40;;;;;;;;;;;;;;;;;;4454106;32;19953;-74
2022/12/19 13:47:05;;;;;;;;;;;;;;;;;;4453605;32;20019;-74
2022/12/19 13:49:30;;;;;;;;;;;;;;;;;;4454484;32;19951;-75
2022/12/19 13:51:55;;;;;;;;;;;;;;;;;;4453798;32;19980;-74
2022/12/19 13:54:21;;;;;;;;;;;;;;;;;;4452921;32;20280;-75
2022/12/19 13:56:46;;;;;;;;;;;;;;;;;;4454245;32;19970;-75
2022/12/19 13:59:11;;;;;;;;;;;;;;;;;;4452806;32;19937;-75
2022/12/19 14:01:37;;;;;;;;;;;;;;;;;;4453202;32;20245;-75
2022/12/19 14:04:02;;;;;;;;;;;;;;;;;;4453393;32;19936;-75
2022/12/19 14:06:27;;;;;;;;;;;;;;;;;;4453590;32;19933;-75
2022/12/19 14:08:52;;;;;;;;;;;;;;;;;;4452891;32;19936;-75
2022/12/19 14:11:17;;;;;;;;;;;;;;;;;;4454073;32;20267;-75
2022/12/19 14:16:26;;;;;;;;;;;;;;;;;;4454612;32;19935;-75
2022/12/19 14:18:54;;;;;;;;;;;;;;;;;;4454221;32;19988;-74
2022/12/19 14:21:20;;;;;;;;;;;;;;;;;;4451651;32;20000;-75
2022/12/19 14:23:45;;;;;;;;;;;;;;;;;;4453021;32;20227;-74
2022/12/19 14:26:10;;;;;;;;;;;;;;;;;;4452565;32;19967;-75
2022/12/19 14:28:35;;;;;;;;;;;;;;;;;;4453533;32;19932;-75
2022/12/19 14:31:01;;;;;;;;;;;;;;;;;;4453785;32;19995;-75
2022/12/19 14:33:26;;;;;;;;;;;;;;;;;;4452229;32;19940;-75
2022/12/19 14:35:51;;;;;;;;;;;;;;;;;;4452549;32;19948;-75
2022/12/19 14:38:16;;;;;;;;;;;;;;;;;;4453468;32;19936;-75
2022/12/19 14:40:41;;;;;;;;;;;;;;;;;;4454349;32;20300;-75
2022/12/19 14:45:50;;;;;;;;;;;;;;;;;;4454364;32;19948;-76
2022/12/19 14:48:15;;;;;;;;;;;;;;;;;;4452347;32;20306;-76
2022/12/19 14:50:40;;;;;;;;;;;;;;;;;;4452723;32;19932;-77
2022/12/19 14:53:05;;;;;;;;;;;;;;;;;;4451359;32;20001;-75
2022/12/19 14:55:30;;;;;;;;;;;;;;;;;;4451871;32;20287;-75
2022/12/19 14:57:56;;;;;;;;;;;;;;;;;;4452533;32;19985;-76
2022/12/19 15:00:21;;;;;;;;;;;;;;;;;;4453642;32;19956;-75
2022/12/19 15:02:46;;;;;;;;;;;;;;;;;;4452475;32;19937;-74
2022/12/19 15:05:11;;;;;;;;;;;;;;;;;;4454154;32;19937;-75
2022/12/19 15:07:36;;;;;;;;;;;;;;;;;;4452576;32;19952;-75
2022/12/19 15:10:01;;;;;;;;;;;;;;;;;;4452245;32;20306;-74
2022/12/19 15:15:10;;;;;;;;;;;;;;;;;;4453373;32;19966;-74
2022/12/19 15:17:35;;;;;;;;;;;;;;;;;;4451934;32;19972;-75
2022/12/19 15:20:00;;;;;;;;;;;;;;;;;;4452468;32;19932;-75
2022/12/19 15:22:25;;;;;;;;;;;;;;;;;;4452550;32;20013;-76
2022/12/19 15:24:50;;;;;;;;;;;;;;;;;;4452864;32;19933;-75
2022/12/19 15:27:15;;;;;;;;;;;;;;;;;;4453512;32;19967;-76
2022/12/19 15:29:41;;;;;;;;;;;;;;;;;;4453737;32;19944;-75
2022/12/19 15:32:06;;;;;;;;;;;;;;;;;;4452840;32;19932;-75
2022/12/19 15:34:33;;;;;;;;;;;;;;;;;;4452615;32;19946;-74
2022/12/19 15:36:58;;;;;;;;;;;;;;;;;;4452308;32;19936;-75
2022/12/19 15:39:23;;;;;;;;;;;;;;;;;;4453080;32;19933;-75
2022/12/19 15:41:48;;;;;;;;;;;;;;;;;;4453645;32;19974;-76
2022/12/19 15:44:13;;;;;;;;;;;;;;;;;;4452290;32;20290;-74
2022/12/19 15:46:39;;;;;;;;;;;;;;;;;;4451979;32;19991;-75
2022/12/19 15:49:04;;;;;;;;;;;;;;;;;;4454036;32;19947;-75
2022/12/19 15:51:29;;;;;;;;;;;;;;;;;;4451781;32;19933;-75
2022/12/19 15:53:54;;;;;;;;;;;;;;;;;;4452023;32;20017;-74
2022/12/19 15:56:19;;;;;;;;;;;;;;;;;;4452768;32;19944;-75
2022/12/19 15:58:44;;;;;;;;;;;;;;;;;;4453957;32;20327;-75
2022/12/19 16:01:11;;;;;;;;;;;;;;;;;;4454229;32;19936;-75
2022/12/19 16:03:36;;;;;;;;;;;;;;;;;;4452445;32;20322;-74
2022/12/19 16:06:01;;;;;;;;;;;;;;;;;;4453176;32;19932;-75
2022/12/19 16:08:27;;;;;;;;;;;;;;;;;;4451707;32;19943;-75
2022/12/19 16:10:53;;;;;;;;;;;;;;;;;;4451930;32;19966;-75
2022/12/19 16:13:18;;;;;;;;;;;;;;;;;;4450767;32;19932;-74
2022/12/19 16:15:43;;;;;;;;;;;;;;;;;;4452356;32;19943;-74
2022/12/19 16:18:08;;;;;;;;;;;;;;;;;;4451848;32;20347;-74
2022/12/19 16:20:35;;;;;;;;;;;;;;;;;;4450416;32;19932;-75
2022/12/19 16:23:00;;;;;;;;;;;;;;;;;;4450463;32;20339;-75
2022/12/19 16:25:25;;;;;;;;;;;;;;;;;;4452249;32;19936;-75
2022/12/19 16:27:50;;;;;;;;;;;;;;;;;;4451790;32;19937;-75
2022/12/19 16:30:16;;;;;;;;;;;;;;;;;;4450991;32;19938;-73
2022/12/19 16:32:41;;;;;;;;;;;;;;;;;;4452311;32;19947;-76
2022/12/19 16:35:07;;;;;;;;;;;;;;;;;;4452340;32;19941;-74
2022/12/19 16:37:33;;;;;;;;;;;;;;;;;;4452481;32;19937;-75
2022/12/19 16:39:58;;;;;;;;;;;;;;;;;;4452369;32;19932;-74
2022/12/19 16:42:23;;;;;;;;;;;;;;;;;;4451607;32;19933;-76
2022/12/19 16:44:48;;;;;;;;;;;;;;;;;;4450475;32;19941;-75